createdAt,value
2022-09-07T00:00:56.487Z,79.93
2022-09-07T00:01:57.163Z,79.93
2022-09-07T00:02:56.537Z,80.44
2022-09-07T00:03:56.494Z,80.54
2022-09-07T00:04:56.468Z,80.84
2022-09-07T00:05:56.461Z,80.44
2022-09-07T00:06:56.447Z,80.74
2022-09-07T00:07:56.494Z,80.84
2022-09-07T00:08:56.436Z,80.84
2022-09-07T00:09:56.424Z,81.55
2022-09-07T00:10:56.502Z,81.15
2022-09-07T00:11:56.400Z,81.55
2022-09-07T00:12:56.404Z,81.85
2022-09-07T00:13:56.416Z,82.15
2022-09-07T00:14:56.383Z,82.19
2022-09-07T00:15:56.392Z,83.06
2022-09-07T00:16:56.374Z,82.05
2022-09-07T00:17:56.361Z,81.95
2022-09-07T00:18:56.350Z,81.95
2022-09-07T00:19:56.365Z,81.35
2022-09-07T00:20:56.340Z,81.45
2022-09-07T00:21:56.340Z,81.65
2022-09-07T00:22:56.376Z,82.15
2022-09-07T00:23:56.318Z,82.15
2022-09-07T00:24:56.324Z,81.75
2022-09-07T00:25:56.285Z,82.56
2022-09-07T00:26:56.300Z,83.06
2022-09-07T00:27:56.276Z,83.26
2022-09-07T00:28:56.273Z,83.36
2022-09-07T00:29:56.267Z,83.16
2022-09-07T00:30:56.456Z,83.06
2022-09-07T00:31:56.277Z,82.86
2022-09-07T00:32:56.237Z,83.97
2022-09-07T00:33:56.235Z,84.57
2022-09-07T00:34:56.217Z,85.28
2022-09-07T00:35:56.209Z,84.27
2022-09-07T00:36:56.234Z,84.67
2022-09-07T00:37:56.194Z,84.88
2022-09-07T00:38:56.218Z,84.17
2022-09-07T00:39:56.279Z,84.37
2022-09-07T00:40:56.165Z,83.46
2022-09-07T00:41:56.224Z,81.65
2022-09-07T00:43:03.165Z,81.15
2022-09-07T00:43:56.157Z,80.74
2022-09-07T00:44:56.153Z,80.84
2022-09-07T00:45:56.128Z,80.94
2022-09-07T00:46:56.244Z,80.84
2022-09-07T00:47:56.114Z,80.74
2022-09-07T00:48:56.103Z,80.74
2022-09-07T00:49:56.115Z,81.35
2022-09-07T00:50:56.094Z,81.24
2022-09-07T00:51:56.099Z,81.15
2022-09-07T00:52:56.069Z,80.94
2022-09-07T00:53:56.070Z,80.94
2022-09-07T00:54:56.056Z,80.04
2022-09-07T00:55:56.049Z,80.04
2022-09-07T00:56:56.041Z,79.13
2022-09-07T00:57:56.063Z,79.53
2022-09-07T00:58:56.020Z,79.23
2022-09-07T00:59:56.018Z,79.13
2022-09-07T01:00:56.018Z,79.03
2022-09-07T01:01:56.147Z,79.13
2022-09-07T01:02:56.158Z,79.23
2022-09-07T01:03:56.010Z,79.53
2022-09-07T01:04:55.975Z,79.43
2022-09-07T01:05:55.975Z,80.18
2022-09-07T01:06:55.954Z,80.18
2022-09-07T01:07:55.944Z,80.72
2022-09-07T01:08:55.934Z,81.62
2022-09-07T01:09:55.959Z,81.87
2022-09-07T01:10:55.921Z,83.52
2022-09-07T01:11:55.919Z,85.08
2022-09-07T01:12:55.909Z,85.68
2022-09-07T01:13:55.898Z,86.39
2022-09-07T01:14:55.895Z,86.29
2022-09-07T01:15:55.930Z,85.28
2022-09-07T01:16:55.872Z,84.77
2022-09-07T01:17:55.871Z,83.86
2022-09-07T01:18:55.858Z,83.56
2022-09-07T01:19:55.847Z,83.92
2022-09-07T01:20:55.848Z,83.42
2022-09-07T01:21:55.877Z,83.22
2022-09-07T01:22:55.821Z,82.61
2022-09-07T01:23:55.815Z,82.71
2022-09-07T01:24:55.803Z,82.27
2022-09-07T01:25:55.799Z,81.76
2022-09-07T01:26:55.785Z,81.87
2022-09-07T01:27:55.806Z,81.67
2022-09-07T01:28:55.773Z,81.76
2022-09-07T01:29:55.774Z,81.56
2022-09-07T01:30:55.810Z,81.46
2022-09-07T01:31:55.773Z,81.73
2022-09-07T01:32:55.743Z,82.27
2022-09-07T01:33:55.726Z,81.73
2022-09-07T01:34:55.714Z,81.67
2022-09-07T01:35:55.719Z,81.26
2022-09-07T01:36:55.702Z,81.22
2022-09-07T01:37:57.124Z,81.12
2022-09-07T01:38:55.721Z,81.32
2022-09-07T01:39:55.731Z,80.72
2022-09-07T01:40:55.673Z,80.92
2022-09-07T01:41:55.673Z,80.62
2022-09-07T01:42:55.661Z,80.82
2022-09-07T01:43:55.667Z,80.82
2022-09-07T01:44:55.686Z,80.55
2022-09-07T01:45:55.679Z,81.32
2022-09-07T01:46:55.615Z,81.46
2022-09-07T01:47:55.697Z,82.07
2022-09-07T01:48:55.664Z,81.52
2022-09-07T01:49:55.612Z,81.52
2022-09-07T01:50:55.589Z,81.93
2022-09-07T01:51:55.586Z,81.52
2022-09-07T01:52:55.570Z,82.03
2022-09-07T01:53:55.573Z,81.52
2022-09-07T01:54:55.546Z,81.62
2022-09-07T01:55:55.570Z,82.13
2022-09-07T01:56:55.552Z,82.03
2022-09-07T01:57:55.530Z,81.93
2022-09-07T01:58:55.512Z,82.43
2022-09-07T01:59:55.537Z,83.34
2022-09-07T02:00:55.497Z,83.24
2022-09-07T02:01:55.536Z,82.64
2022-09-07T02:02:55.507Z,82.87
2022-09-07T02:03:55.471Z,83.04
2022-09-07T02:04:55.512Z,83.24
2022-09-07T02:05:55.447Z,84.09
2022-09-07T02:06:55.440Z,84.23
2022-09-07T02:07:55.439Z,85.58
2022-09-07T02:08:55.429Z,85.78
2022-09-07T02:09:55.428Z,86.39
2022-09-07T02:10:55.437Z,86.73
2022-09-07T02:11:55.413Z,86.73
2022-09-07T02:12:55.401Z,87.54
2022-09-07T02:13:55.399Z,87.54
2022-09-07T02:14:55.388Z,86.83
2022-09-07T02:15:55.405Z,86.83
2022-09-07T02:16:55.380Z,86.37
2022-09-07T02:17:55.355Z,87.58
2022-09-07T02:18:55.342Z,87.62
2022-09-07T02:19:55.342Z,88.09
2022-09-07T02:20:55.336Z,88.43
2022-09-07T02:21:55.335Z,88.23
2022-09-07T02:22:55.340Z,87.52
2022-09-07T02:23:55.317Z,87.58
2022-09-07T02:24:55.309Z,87.28
2022-09-07T02:25:55.329Z,86.87
2022-09-07T02:26:55.289Z,86.27
2022-09-07T02:27:55.296Z,86.33
2022-09-07T02:28:55.267Z,86.13
2022-09-07T02:29:55.288Z,85.52
2022-09-07T02:30:55.276Z,84.91
2022-09-07T02:31:55.241Z,85.08
2022-09-07T02:32:55.255Z,84.37
2022-09-07T02:33:55.290Z,84.67
2022-09-07T02:34:55.235Z,84.37
2022-09-07T02:35:55.206Z,84.57
2022-09-07T02:36:55.240Z,84.57
2022-09-07T02:37:55.241Z,84.47
2022-09-07T02:38:55.188Z,84.06
2022-09-07T02:39:55.230Z,84.57
2022-09-07T02:40:55.190Z,85.58
2022-09-07T02:41:55.168Z,86.15
2022-09-07T02:42:55.144Z,85.99
2022-09-07T02:43:55.139Z,86.69
2022-09-07T02:44:55.162Z,85.88
2022-09-07T02:45:55.163Z,85.48
2022-09-07T02:46:55.142Z,84.37
2022-09-07T02:47:55.113Z,84.57
2022-09-07T02:48:55.125Z,84.47
2022-09-07T02:49:55.104Z,84.77
2022-09-07T02:50:55.095Z,84.37
2022-09-07T02:51:55.089Z,84.47
2022-09-07T02:52:55.153Z,85.11
2022-09-07T02:53:55.070Z,85.93
2022-09-07T02:54:55.059Z,88.65
2022-09-07T02:55:55.043Z,93.56
2022-09-07T02:56:55.200Z,92.21
2022-09-07T02:57:55.028Z,90.95
2022-09-07T02:58:55.732Z,88.68
2022-09-07T02:59:55.007Z,87.49
2022-09-07T03:00:55.027Z,86.99
2022-09-07T03:01:55.074Z,84.71
2022-09-07T03:02:55.137Z,83.60
2022-09-07T03:03:54.980Z,83.74
2022-09-07T03:04:55.010Z,83.78
2022-09-07T03:05:55.178Z,84.33
2022-09-07T03:06:54.959Z,84.63
2022-09-07T03:07:54.947Z,85.28
2022-09-07T03:08:54.943Z,85.38
2022-09-07T03:09:54.941Z,85.17
2022-09-07T03:10:54.966Z,84.87
2022-09-07T03:11:54.912Z,85.58
2022-09-07T03:12:55.026Z,85.17
2022-09-07T03:13:54.886Z,85.48
2022-09-07T03:14:54.898Z,84.97
2022-09-07T03:15:56.139Z,84.87
2022-09-07T03:16:54.870Z,85.28
2022-09-07T03:17:54.865Z,84.87
2022-09-07T03:18:54.857Z,85.31
2022-09-07T03:19:54.843Z,85.11
2022-09-07T03:20:54.866Z,85.31
2022-09-07T03:21:54.826Z,84.81
2022-09-07T03:22:54.823Z,84.91
2022-09-07T03:23:54.925Z,85.38
2022-09-07T03:24:54.868Z,84.87
2022-09-07T03:25:54.814Z,85.58
2022-09-07T03:26:54.807Z,85.48
2022-09-07T03:27:54.767Z,84.67
2022-09-07T03:28:54.772Z,84.43
2022-09-07T03:29:54.754Z,83.72
2022-09-07T03:30:54.773Z,84.12
2022-09-07T03:31:54.761Z,83.72
2022-09-07T03:32:54.746Z,83.62
2022-09-07T03:33:54.775Z,84.73
2022-09-07T03:34:54.717Z,85.24
2022-09-07T03:35:54.707Z,85.74
2022-09-07T03:36:54.733Z,85.24
2022-09-07T03:37:54.693Z,84.73
2022-09-07T03:38:54.679Z,84.53
2022-09-07T03:39:54.695Z,84.19
2022-09-07T03:40:54.808Z,84.29
2022-09-07T03:41:54.660Z,84.49
2022-09-07T03:42:54.765Z,84.29
2022-09-07T03:43:54.639Z,84.39
2022-09-07T03:44:54.629Z,84.69
2022-09-07T03:45:54.661Z,84.29
2022-09-07T03:46:54.613Z,84.15
2022-09-07T03:47:54.609Z,84.39
2022-09-07T03:48:54.623Z,84.55
2022-09-07T03:49:54.585Z,84.59
2022-09-07T03:50:54.572Z,85.10
2022-09-07T03:51:54.570Z,85.40
2022-09-07T03:52:54.568Z,85.40
2022-09-07T03:53:54.552Z,85.40
2022-09-07T03:54:54.615Z,85.50
2022-09-07T03:55:54.534Z,85.40
2022-09-07T03:56:54.549Z,85.50
2022-09-07T03:57:54.524Z,85.30
2022-09-07T03:58:54.512Z,85.10
2022-09-07T03:59:54.516Z,85.30
2022-09-07T04:00:54.521Z,85.50
2022-09-07T04:01:54.518Z,86.15
2022-09-07T04:02:54.514Z,86.15
2022-09-07T04:03:56.874Z,85.40
2022-09-07T04:04:55.492Z,86.00
2022-09-07T04:05:54.449Z,85.80
2022-09-07T04:06:54.472Z,85.50
2022-09-07T04:07:54.462Z,85.50
2022-09-07T04:08:54.442Z,84.69
2022-09-07T04:09:54.429Z,84.55
2022-09-07T04:10:54.412Z,85.16
2022-09-07T04:11:54.413Z,85.16
2022-09-07T04:12:54.405Z,84.05
2022-09-07T04:13:54.413Z,84.41
2022-09-07T04:14:54.398Z,83.60
2022-09-07T04:15:54.454Z,83.80
2022-09-07T04:16:54.448Z,83.60
2022-09-07T04:17:54.459Z,83.70
2022-09-07T04:18:54.392Z,84.51
2022-09-07T04:19:54.352Z,84.81
2022-09-07T04:20:55.279Z,85.96
2022-09-07T04:21:54.332Z,86.10
2022-09-07T04:22:54.535Z,86.61
2022-09-07T04:23:54.310Z,86.71
2022-09-07T04:24:54.328Z,87.41
2022-09-07T04:25:54.303Z,87.01
2022-09-07T04:26:54.289Z,86.21
2022-09-07T04:27:54.275Z,86.41
2022-09-07T04:28:54.269Z,86.41
2022-09-07T04:29:54.281Z,86.67
2022-09-07T04:30:54.313Z,86.51
2022-09-07T04:31:54.252Z,86.07
2022-09-07T04:32:54.243Z,86.16
2022-09-07T04:33:54.247Z,85.86
2022-09-07T04:34:54.239Z,85.46
2022-09-07T04:35:54.225Z,85.46
2022-09-07T04:36:54.229Z,84.81
2022-09-07T04:37:54.194Z,85.11
2022-09-07T04:38:54.204Z,85.11
2022-09-07T04:39:54.238Z,85.02
2022-09-07T04:40:54.176Z,85.02
2022-09-07T04:41:54.211Z,85.22
2022-09-07T04:42:54.157Z,84.51
2022-09-07T04:43:54.260Z,84.91
2022-09-07T04:44:54.163Z,84.51
2022-09-07T04:45:54.183Z,85.11
2022-09-07T04:46:54.122Z,85.31
2022-09-07T04:47:54.132Z,86.16
2022-09-07T04:48:54.109Z,85.76
2022-09-07T04:49:54.087Z,85.82
2022-09-07T04:50:54.082Z,85.82
2022-09-07T04:51:54.089Z,85.42
2022-09-07T04:52:54.065Z,85.11
2022-09-07T04:53:54.103Z,85.02
2022-09-07T04:54:54.063Z,85.31
2022-09-07T04:55:54.052Z,85.92
2022-09-07T04:56:54.044Z,88.04
2022-09-07T04:57:54.053Z,88.34
2022-09-07T04:58:54.048Z,87.94
2022-09-07T04:59:54.044Z,87.84
2022-09-07T05:00:54.105Z,88.65
2022-09-07T05:01:54.084Z,88.59
2022-09-07T05:02:53.986Z,90.61
2022-09-07T05:03:54.047Z,92.12
2022-09-07T05:04:53.980Z,91.61
2022-09-07T05:05:53.989Z,92.22
2022-09-07T05:06:53.952Z,92.77
2022-09-07T05:07:53.948Z,94.07
2022-09-07T05:08:53.960Z,95.28
2022-09-07T05:09:53.985Z,95.32
2022-09-07T05:10:53.938Z,96.74
2022-09-07T05:11:53.936Z,97.14
2022-09-07T05:12:53.913Z,97.55
2022-09-07T05:13:53.997Z,97.34
2022-09-07T05:14:53.889Z,98.16
2022-09-07T05:15:53.883Z,97.34
2022-09-07T05:16:53.919Z,97.25
2022-09-07T05:17:54.021Z,97.55
2022-09-07T05:18:53.927Z,96.59
2022-09-07T05:19:53.864Z,95.28
2022-09-07T05:20:53.909Z,95.58
2022-09-07T05:21:53.826Z,95.18
2022-09-07T05:22:54.481Z,96.29
2022-09-07T05:23:53.809Z,96.54
2022-09-07T05:24:53.802Z,96.98
2022-09-07T05:25:53.815Z,97.65
2022-09-07T05:26:53.798Z,98.10
2022-09-07T05:27:53.870Z,98.10
2022-09-07T05:30:03.186Z,98.40
2022-09-07T05:31:54.803Z,99.36
2022-09-07T05:32:53.760Z,99.82
2022-09-07T05:34:54.715Z,99.98
2022-09-07T05:35:53.711Z,98.25
2022-09-07T05:36:53.749Z,98.11
2022-09-07T05:37:53.682Z,97.56
2022-09-07T05:38:53.700Z,96.95
2022-09-07T05:39:53.743Z,96.85
2022-09-07T05:40:53.677Z,96.75
2022-09-07T05:41:53.663Z,95.70
2022-09-07T05:42:53.677Z,94.99
2022-09-07T05:44:54.638Z,93.73
2022-09-07T05:45:53.659Z,93.99
2022-09-07T05:46:53.617Z,93.99
2022-09-07T05:47:53.609Z,94.19
2022-09-07T05:48:53.630Z,93.29
2022-09-07T05:49:56.561Z,93.38
2022-09-07T05:50:53.591Z,93.44
2022-09-07T05:51:53.585Z,93.34
2022-09-07T05:52:53.664Z,92.74
2022-09-07T05:53:53.599Z,92.13
2022-09-07T05:54:59.297Z,91.53
2022-09-07T05:55:54.550Z,91.63
2022-09-07T05:56:53.563Z,90.48
2022-09-07T05:57:53.527Z,91.02
2022-09-07T05:58:53.529Z,91.83
2022-09-07T05:59:53.534Z,92.88
2022-09-07T06:00:53.505Z,92.78
2022-09-07T06:01:53.603Z,91.73
2022-09-07T06:02:53.597Z,91.57
2022-09-07T06:03:53.498Z,92.18
2022-09-07T06:04:53.465Z,90.52
2022-09-07T06:05:53.485Z,90.52
2022-09-07T06:07:23.136Z,91.73
2022-09-07T06:07:54.456Z,89.81
2022-09-07T06:08:53.518Z,89.87
2022-09-07T06:10:54.528Z,88.09
2022-09-07T06:11:53.431Z,85.88
2022-09-07T06:12:53.409Z,84.75
2022-09-07T06:13:53.387Z,83.61
2022-09-07T06:14:53.383Z,83.37
2022-09-07T06:15:53.397Z,81.42
2022-09-07T06:16:53.468Z,81.04
2022-09-07T06:17:53.354Z,79.67
2022-09-07T06:18:53.353Z,78.19
2022-09-07T06:19:53.344Z,76.19
2022-09-07T06:20:53.370Z,75.42
2022-09-07T06:21:53.353Z,75.46
2022-09-07T06:22:53.326Z,75.26
2022-09-07T06:23:53.317Z,72.95
2022-09-07T06:24:53.307Z,71.06
2022-09-07T06:25:53.303Z,71.42
2022-09-07T06:26:53.313Z,72.95
2022-09-07T06:27:53.278Z,70.89
2022-09-07T06:28:57.607Z,69.99
2022-09-07T06:29:53.261Z,70.36
2022-09-07T06:30:53.257Z,69.09
2022-09-07T06:32:54.308Z,66.44
2022-09-07T06:33:53.240Z,64.78
2022-09-07T06:34:53.251Z,66.50
2022-09-07T06:35:53.222Z,66.47
2022-09-07T06:36:53.201Z,66.44
2022-09-07T06:37:53.231Z,64.86
2022-09-07T06:38:53.200Z,65.19
2022-09-07T06:39:53.222Z,67.83
2022-09-07T06:42:01.478Z,70.39
2022-09-07T06:42:54.203Z,68.33
2022-09-07T06:43:53.143Z,66.54
2022-09-07T06:44:53.141Z,63.60
2022-09-07T06:45:53.384Z,60.63
2022-09-07T06:47:08.539Z,59.28
2022-09-07T06:47:54.119Z,58.78
2022-09-07T06:48:53.145Z,59.48
2022-09-07T06:49:53.157Z,59.05
2022-09-07T06:50:53.089Z,60.57
2022-09-07T06:51:53.088Z,60.47
2022-09-07T06:55:01.644Z,62.37
2022-09-07T06:55:54.062Z,62.15
2022-09-07T06:56:53.107Z,61.94
2022-09-07T06:57:53.038Z,62.34
2022-09-07T06:58:53.084Z,61.26
2022-09-07T06:59:53.038Z,60.54
2022-09-07T07:00:53.066Z,59.15
2022-09-07T07:01:53.032Z,59.25
2022-09-07T07:02:53.079Z,58.95
2022-09-07T07:03:52.983Z,60.14
2022-09-07T07:04:53.040Z,59.72
2022-09-07T07:05:52.988Z,58.18
2022-09-07T07:06:52.951Z,58.11
2022-09-07T07:07:52.970Z,57.46
2022-09-07T07:08:52.937Z,57.16
2022-09-07T07:09:52.937Z,56.76
2022-09-07T07:10:53.356Z,56.92
2022-09-07T07:11:52.922Z,58.86
2022-09-07T07:12:52.930Z,59.25
2022-09-07T07:13:52.897Z,60.47
2022-09-07T07:14:52.901Z,58.88
2022-09-07T07:15:52.885Z,58.63
2022-09-07T07:16:52.914Z,56.79
2022-09-07T07:17:58.955Z,57.98
2022-09-07T07:18:54.907Z,56.34
2022-09-07T07:19:52.891Z,53.35
2022-09-07T07:20:52.842Z,55.00
2022-09-07T07:22:23.835Z,53.54
2022-09-07T07:22:53.829Z,50.19
2022-09-07T07:23:52.836Z,50.54
2022-09-07T07:24:52.840Z,50.51
2022-09-07T07:25:52.807Z,49.97
2022-09-07T07:26:52.808Z,48.77
2022-09-07T07:27:52.937Z,46.88
2022-09-07T07:29:53.806Z,49.55
2022-09-07T07:30:52.783Z,48.61
2022-09-07T07:31:52.764Z,49.55
2022-09-07T07:32:52.790Z,51.37
2022-09-07T07:33:52.786Z,53.34
2022-09-07T07:34:52.728Z,52.33
2022-09-07T07:35:52.813Z,51.20
2022-09-07T07:36:52.734Z,51.40
2022-09-07T07:37:52.727Z,49.99
2022-09-07T07:39:00.618Z,50.12
2022-09-07T07:41:55.321Z,49.97
2022-09-07T07:42:52.678Z,49.35
2022-09-07T07:43:52.677Z,51.99
2022-09-07T07:46:52.718Z,49.84
2022-09-07T07:47:52.637Z,51.42
2022-09-07T07:48:52.635Z,52.48
2022-09-07T07:50:30.644Z,52.61
2022-09-07T07:50:53.609Z,49.90
2022-09-07T07:53:53.821Z,49.18
2022-09-07T07:54:52.589Z,50.54
2022-09-07T07:55:52.597Z,49.23
2022-09-07T07:56:52.572Z,46.60
2022-09-07T07:57:52.552Z,47.31
2022-09-07T07:58:52.552Z,48.05
2022-09-07T07:59:52.547Z,47.13
2022-09-07T08:00:55.146Z,45.16
2022-09-07T08:01:52.716Z,44.87
2022-09-07T08:02:52.626Z,44.13
2022-09-07T08:03:52.518Z,44.31
2022-09-07T08:04:52.501Z,42.80
2022-09-07T08:05:52.504Z,41.62
2022-09-07T08:06:52.480Z,41.70
2022-09-07T08:07:52.498Z,42.48
2022-09-07T08:08:52.469Z,42.60
2022-09-07T08:09:52.480Z,42.90
2022-09-07T08:10:52.455Z,42.03
2022-09-07T08:11:52.439Z,42.41
2022-09-07T08:12:52.507Z,45.17
2022-09-07T08:13:52.446Z,45.15
2022-09-07T08:14:52.425Z,45.81
2022-09-07T08:15:52.475Z,48.14
2022-09-07T08:16:52.401Z,45.25
2022-09-07T08:17:52.389Z,45.60
2022-09-07T08:18:52.399Z,44.08
2022-09-07T08:19:52.410Z,43.18
2022-09-07T08:20:52.472Z,42.76
2022-09-07T08:21:52.415Z,41.19
2022-09-07T08:22:52.356Z,44.26
2022-09-07T08:23:52.362Z,42.96
2022-09-07T08:24:52.367Z,39.88
2022-09-07T08:25:52.359Z,41.17
2022-09-07T08:26:52.329Z,41.84
2022-09-07T08:27:52.324Z,42.55
2022-09-07T08:28:52.298Z,44.73
2022-09-07T08:29:52.306Z,42.33
2022-09-07T08:30:52.300Z,41.27
2022-09-07T08:31:52.388Z,42.41
2022-09-07T08:32:52.287Z,42.67
2022-09-07T08:33:52.278Z,44.70
2022-09-07T08:34:52.275Z,46.03
2022-09-07T08:35:52.267Z,47.34
2022-09-07T08:36:52.254Z,44.76
2022-09-07T08:37:52.299Z,44.95
2022-09-07T08:38:52.236Z,44.36
2022-09-07T08:39:52.286Z,45.79
2022-09-07T08:40:52.218Z,44.91
2022-09-07T08:41:52.212Z,42.38
2022-09-07T08:42:52.201Z,43.55
2022-09-07T08:43:52.221Z,43.85
2022-09-07T08:44:52.186Z,44.48
2022-09-07T08:45:52.185Z,48.83
2022-09-07T08:46:52.249Z,46.64
2022-09-07T08:47:52.172Z,47.75
2022-09-07T08:48:52.156Z,49.35
2022-09-07T08:49:52.168Z,48.74
2022-09-07T08:50:52.141Z,47.25
2022-09-07T08:51:52.146Z,47.35
2022-09-07T08:52:52.128Z,47.63
2022-09-07T08:53:52.135Z,46.89
2022-09-07T08:54:52.141Z,45.27
2022-09-07T08:55:52.112Z,46.79
2022-09-07T08:57:53.091Z,46.99
2022-09-07T08:58:52.085Z,46.62
2022-09-07T08:59:52.160Z,48.71
2022-09-07T09:01:30.719Z,48.88
2022-09-07T09:04:23.192Z,48.49
2022-09-07T09:05:53.136Z,49.44
2022-09-07T09:06:52.101Z,53.18
2022-09-07T09:07:52.019Z,53.11
2022-09-07T09:08:52.012Z,54.07
2022-09-07T09:09:52.018Z,53.18
2022-09-07T09:10:52.025Z,53.11
2022-09-07T09:11:51.996Z,54.05
2022-09-07T09:12:51.984Z,53.96
2022-09-07T09:13:51.977Z,55.57
2022-09-07T09:14:51.963Z,56.13
2022-09-07T09:15:52.082Z,54.45
2022-09-07T09:16:52.840Z,54.77
2022-09-07T09:17:51.950Z,56.13
2022-09-07T09:18:51.944Z,55.04
2022-09-07T09:19:51.937Z,54.08
2022-09-07T09:20:51.921Z,55.07
2022-09-07T09:21:51.923Z,55.64
2022-09-07T09:22:51.924Z,55.54
2022-09-07T09:23:51.901Z,56.23
2022-09-07T09:24:51.881Z,54.94
2022-09-07T09:25:51.872Z,54.25
2022-09-07T09:26:51.862Z,54.22
2022-09-07T09:27:51.860Z,53.63
2022-09-07T09:28:51.908Z,55.29
2022-09-07T09:29:51.838Z,54.20
2022-09-07T09:30:51.892Z,54.20
2022-09-07T09:31:51.904Z,54.00
2022-09-07T09:32:51.819Z,54.86
2022-09-07T09:33:51.814Z,54.79
2022-09-07T09:34:51.845Z,54.99
2022-09-07T09:35:51.797Z,54.27
2022-09-07T09:36:51.790Z,53.60
2022-09-07T09:37:51.781Z,53.03
2022-09-07T09:38:51.768Z,53.13
2022-09-07T09:39:54.451Z,53.63
2022-09-07T09:40:52.749Z,56.15
2022-09-07T09:41:51.743Z,56.18
2022-09-07T09:42:51.731Z,56.02
2022-09-07T09:43:51.734Z,54.76
2022-09-07T09:44:51.710Z,56.42
2022-09-07T09:47:29.514Z,58.39
2022-09-07T09:47:52.864Z,57.57
2022-09-07T09:48:51.701Z,58.51
2022-09-07T09:49:51.700Z,58.91
2022-09-07T09:52:54.167Z,58.69
2022-09-07T09:53:53.386Z,57.67
2022-09-07T09:54:51.646Z,56.87
2022-09-07T09:55:51.654Z,56.45
2022-09-07T09:56:51.772Z,55.83
2022-09-07T09:59:57.667Z,55.38
2022-09-07T10:04:51.571Z,58.07
2022-09-07T10:05:51.572Z,55.51
2022-09-07T10:06:51.574Z,56.23
2022-09-07T10:07:51.558Z,55.77
2022-09-07T10:08:51.579Z,54.46
2022-09-07T10:09:51.539Z,53.62
2022-09-07T10:10:51.564Z,53.99
2022-09-07T10:12:07.821Z,51.69
2022-09-07T10:12:52.536Z,51.59
2022-09-07T10:13:51.615Z,51.79
2022-09-07T10:14:51.527Z,54.04
2022-09-07T10:15:51.542Z,53.57
2022-09-07T10:16:51.481Z,56.02
2022-09-07T10:17:51.505Z,56.32
2022-09-07T10:18:51.468Z,55.97
2022-09-07T10:19:52.603Z,56.34
2022-09-07T10:20:51.482Z,55.26
2022-09-07T10:21:51.490Z,54.04
2022-09-07T10:22:51.744Z,53.52
2022-09-07T10:23:51.428Z,52.58
2022-09-07T10:24:51.422Z,52.66
2022-09-07T10:25:51.458Z,53.50
2022-09-07T10:26:51.441Z,51.69
2022-09-07T10:27:51.402Z,52.61
2022-09-07T10:29:07.184Z,52.63
2022-09-07T10:29:52.432Z,52.19
2022-09-07T10:30:51.403Z,51.94
2022-09-07T10:31:51.371Z,54.06
2022-09-07T10:32:51.362Z,53.20
2022-09-07T10:34:52.340Z,53.60
2022-09-07T10:35:51.350Z,53.87
2022-09-07T10:36:51.334Z,53.64
2022-09-07T10:37:51.326Z,54.27
2022-09-07T10:38:51.316Z,53.94
2022-09-07T10:39:51.353Z,52.70
2022-09-07T10:40:51.296Z,50.95
2022-09-07T10:41:51.306Z,50.19
2022-09-07T10:43:52.291Z,49.06
2022-09-07T10:44:51.272Z,50.51
2022-09-07T10:45:51.348Z,49.94
2022-09-07T10:46:58.713Z,51.64
2022-09-07T10:47:52.252Z,52.83
2022-09-07T10:48:51.238Z,52.76
2022-09-07T10:50:52.287Z,53.03
2022-09-07T10:51:51.221Z,51.23
2022-09-07T10:52:51.207Z,50.41
2022-09-07T10:54:30.120Z,49.94
2022-09-07T10:54:52.185Z,51.82
2022-09-07T10:55:51.190Z,51.82
2022-09-07T10:56:51.230Z,49.57
2022-09-07T10:57:51.171Z,48.94
2022-09-07T10:59:06.582Z,48.13
2022-09-07T11:00:08.394Z,47.34
2022-09-07T11:00:52.151Z,48.13
2022-09-07T11:01:51.468Z,46.21
2022-09-07T11:03:52.352Z,46.50
2022-09-07T11:04:51.104Z,45.42
2022-09-07T11:05:51.109Z,46.65
2022-09-07T11:06:51.111Z,47.26
2022-09-07T11:07:51.142Z,47.16
2022-09-07T11:09:52.072Z,48.79
2022-09-07T11:10:51.068Z,49.30
2022-09-07T11:12:06.406Z,49.30
2022-09-07T11:12:52.087Z,48.74
2022-09-07T11:14:11.837Z,48.56
2022-09-07T11:14:52.041Z,49.92
2022-09-07T11:15:51.732Z,49.35
2022-09-07T11:16:51.625Z,50.07
2022-09-07T11:17:53.183Z,50.16
2022-09-07T11:18:51.189Z,50.07
2022-09-07T11:19:51.005Z,49.77
2022-09-07T11:20:50.997Z,49.30
2022-09-07T11:21:58.226Z,50.48
2022-09-07T11:22:51.974Z,49.60
2022-09-07T11:23:50.986Z,49.69
2022-09-07T11:25:52.244Z,50.71
2022-09-07T11:26:51.014Z,50.21
2022-09-07T11:27:51.864Z,50.01
2022-09-07T11:29:29.094Z,49.89
2022-09-07T11:29:54.444Z,49.30
2022-09-07T11:30:50.951Z,48.58
2022-09-07T11:31:50.895Z,48.71
2022-09-07T11:32:50.970Z,49.84
2022-09-07T11:34:52.364Z,47.38
2022-09-07T11:35:50.883Z,46.76
2022-09-07T11:36:50.882Z,47.25
2022-09-07T11:37:50.858Z,47.75
2022-09-07T11:38:50.857Z,46.84
2022-09-07T11:39:50.899Z,46.50
2022-09-07T11:40:50.904Z,46.97
2022-09-07T11:41:51.447Z,45.45
2022-09-07T11:42:50.811Z,43.04
2022-09-07T11:43:51.240Z,42.99
2022-09-07T11:44:50.797Z,45.00
2022-09-07T11:45:50.810Z,45.53
2022-09-07T11:46:50.823Z,45.81
2022-09-07T11:47:50.796Z,45.63
2022-09-07T11:48:50.761Z,45.83
2022-09-07T11:49:53.329Z,44.53
2022-09-07T11:50:50.742Z,45.02
2022-09-07T11:51:53.569Z,44.60
2022-09-07T11:52:53.662Z,44.51
2022-09-07T11:53:50.808Z,45.00
2022-09-07T11:54:50.729Z,43.03
2022-09-07T11:55:50.726Z,45.04
2022-09-07T11:56:50.712Z,44.82
2022-09-07T11:57:55.354Z,45.51
2022-09-07T11:58:51.734Z,45.76
2022-09-07T11:59:51.015Z,42.96
2022-09-07T12:00:50.766Z,42.35
2022-09-07T12:01:50.850Z,43.26
2022-09-07T12:03:00.972Z,44.29
2022-09-07T12:03:51.816Z,45.37
2022-09-07T12:04:55.483Z,45.15
2022-09-07T12:05:51.671Z,44.48
2022-09-07T12:06:50.629Z,45.07
2022-09-07T12:07:50.643Z,45.02
2022-09-07T12:08:50.637Z,45.83
2022-09-07T12:09:50.623Z,46.84
2022-09-07T12:10:50.588Z,47.06
2022-09-07T12:11:50.591Z,48.04
2022-09-07T12:12:50.592Z,47.65
2022-09-07T12:13:50.565Z,47.85
2022-09-07T12:14:50.565Z,47.75
2022-09-07T12:15:50.642Z,47.35
2022-09-07T12:16:50.575Z,47.25
2022-09-07T12:17:50.542Z,47.75
2022-09-07T12:18:50.546Z,47.77
2022-09-07T12:19:50.533Z,47.18
2022-09-07T12:20:50.522Z,47.91
2022-09-07T12:21:50.538Z,48.31
2022-09-07T12:22:50.533Z,49.20
2022-09-07T12:23:50.526Z,48.41
2022-09-07T12:24:50.500Z,48.80
2022-09-07T12:25:50.466Z,47.77
2022-09-07T12:26:50.488Z,47.87
2022-09-07T12:27:50.483Z,47.38
2022-09-07T12:28:50.454Z,47.67
2022-09-07T12:29:50.455Z,47.79
2022-09-07T12:30:50.478Z,47.60
2022-09-07T12:32:07.235Z,48.19
2022-09-07T12:32:54.030Z,47.20
2022-09-07T12:33:50.518Z,46.47
2022-09-07T12:34:50.418Z,45.83
2022-09-07T12:35:50.406Z,46.62
2022-09-07T12:36:50.413Z,44.72
2022-09-07T12:37:50.411Z,44.11
2022-09-07T12:38:50.404Z,47.83
2022-09-07T12:39:50.426Z,43.68
2022-09-07T12:40:50.390Z,43.38
2022-09-07T12:42:31.450Z,44.48
2022-09-07T12:42:51.351Z,43.30
2022-09-07T12:43:50.337Z,42.89
2022-09-07T12:44:50.361Z,43.06
2022-09-07T12:45:50.428Z,42.28
2022-09-07T12:46:50.419Z,42.65
2022-09-07T12:47:50.310Z,42.14
2022-09-07T12:48:50.301Z,41.45
2022-09-07T12:49:50.312Z,41.56
2022-09-07T12:50:51.092Z,40.78
2022-09-07T12:52:15.169Z,42.63
2022-09-07T12:52:51.283Z,40.84
2022-09-07T12:53:55.510Z,42.61
2022-09-07T12:55:10.014Z,41.45
2022-09-07T12:57:29.099Z,43.12
2022-09-07T12:57:51.251Z,42.47
2022-09-07T12:58:50.227Z,42.41
2022-09-07T12:59:50.201Z,43.60
2022-09-07T13:00:50.206Z,43.79
2022-09-07T13:01:50.374Z,44.98
2022-09-07T13:02:50.243Z,44.07
2022-09-07T13:03:51.554Z,42.75
2022-09-07T13:04:50.238Z,43.04
2022-09-07T13:05:50.181Z,42.63
2022-09-07T13:07:05.594Z,42.21
2022-09-07T13:07:51.139Z,41.33
2022-09-07T13:08:50.140Z,41.33
2022-09-07T13:09:50.129Z,41.41
2022-09-07T13:10:50.122Z,40.61
2022-09-07T13:11:50.164Z,41.09
2022-09-07T13:12:53.554Z,40.03
2022-09-07T13:14:08.858Z,40.70
2022-09-07T13:14:51.297Z,41.09
2022-09-07T13:15:50.125Z,40.03
2022-09-07T13:17:51.092Z,39.76
2022-09-07T13:18:50.101Z,40.09
2022-09-07T13:19:50.057Z,41.22
2022-09-07T13:20:50.033Z,42.32
2022-09-07T13:21:50.035Z,42.40
2022-09-07T13:22:50.003Z,41.39
2022-09-07T13:23:50.063Z,41.86
2022-09-07T13:24:50.119Z,41.88
2022-09-07T13:25:49.971Z,41.77
2022-09-07T13:26:51.317Z,41.86
2022-09-07T13:27:50.391Z,40.88
2022-09-07T13:28:49.992Z,40.90
2022-09-07T13:29:49.977Z,42.28
2022-09-07T13:30:49.969Z,41.51